sensor_id;sensor_type;location;lat;lon;timestamp;P1;durP1;ratioP1;P2;durP2;ratioP2
54511;SDS011;40419;47.438;19.026;2023-07-31T00:02:19;1.48;;;0.93;;
54511;SDS011;40419;47.438;19.026;2023-07-31T00:04:52;2.08;;;1.20;;
54511;SDS011;40419;47.438;19.026;2023-07-31T00:07:18;1.00;;;0.77;;
54511;SDS011;40419;47.438;19.026;2023-07-31T00:09:46;1.80;;;1.02;;
54511;SDS011;40419;47.438;19.026;2023-07-31T00:12:15;2.50;;;1.20;;
54511;SDS011;40419;47.438;19.026;2023-07-31T00:14:43;2.88;;;1.65;;
54511;SDS011;40419;47.438;19.026;2023-07-31T00:17:08;1.55;;;1.02;;
54511;SDS011;40419;47.438;19.026;2023-07-31T00:19:36;1.20;;;0.90;;
54511;SDS011;40419;47.438;19.026;2023-07-31T00:22:08;2.22;;;0.98;;
54511;SDS011;40419;47.438;19.026;2023-07-31T00:24:36;2.05;;;1.00;;
54511;SDS011;40419;47.438;19.026;2023-07-31T00:27:02;2.10;;;0.90;;
54511;SDS011;40419;47.438;19.026;2023-07-31T00:29:27;1.83;;;1.08;;
54511;SDS011;40419;47.438;19.026;2023-07-31T00:31:58;1.58;;;1.15;;
54511;SDS011;40419;47.438;19.026;2023-07-31T00:34:28;2.75;;;1.60;;
54511;SDS011;40419;47.438;19.026;2023-07-31T00:36:55;0.93;;;0.70;;
54511;SDS011;40419;47.438;19.026;2023-07-31T00:39:23;1.98;;;1.20;;
54511;SDS011;40419;47.438;19.026;2023-07-31T00:41:51;1.67;;;1.02;;
54511;SDS011;40419;47.438;19.026;2023-07-31T00:44:19;0.95;;;0.80;;
54511;SDS011;40419;47.438;19.026;2023-07-31T00:46:44;1.67;;;1.15;;
54511;SDS011;40419;47.438;19.026;2023-07-31T00:49:15;2.40;;;1.23;;
54511;SDS011;40419;47.438;19.026;2023-07-31T00:51:41;1.98;;;1.02;;
54511;SDS011;40419;47.438;19.026;2023-07-31T00:54:09;2.10;;;1.00;;
54511;SDS011;40419;47.438;19.026;2023-07-31T00:56:38;2.72;;;1.15;;
54511;SDS011;40419;47.438;19.026;2023-07-31T00:59:06;2.75;;;0.77;;
54511;SDS011;40419;47.438;19.026;2023-07-31T01:01:34;1.58;;;1.20;;
54511;SDS011;40419;47.438;19.026;2023-07-31T01:04:00;2.83;;;1.10;;
54511;SDS011;40419;47.438;19.026;2023-07-31T01:09:02;2.65;;;0.90;;
54511;SDS011;40419;47.438;19.026;2023-07-31T01:11:43;1.55;;;0.80;;
54511;SDS011;40419;47.438;19.026;2023-07-31T01:14:13;1.98;;;1.08;;
54511;SDS011;40419;47.438;19.026;2023-07-31T01:16:44;1.38;;;0.80;;
54511;SDS011;40419;47.438;19.026;2023-07-31T01:19:14;3.08;;;1.10;;
54511;SDS011;40419;47.438;19.026;2023-07-31T01:27:34;1.77;;;0.70;;
54511;SDS011;40419;47.438;19.026;2023-07-31T01:30:10;0.70;;;0.52;;
54511;SDS011;40419;47.438;19.026;2023-07-31T01:32:42;0.82;;;0.60;;
54511;SDS011;40419;47.438;19.026;2023-07-31T01:35:09;0.85;;;0.60;;
54511;SDS011;40419;47.438;19.026;2023-07-31T01:37:37;0.90;;;0.80;;
54511;SDS011;40419;47.438;19.026;2023-07-31T01:40:03;1.48;;;0.70;;
54511;SDS011;40419;47.438;19.026;2023-07-31T01:42:32;1.65;;;0.80;;
54511;SDS011;40419;47.438;19.026;2023-07-31T01:44:58;4.45;;;0.80;;
54511;SDS011;40419;47.438;19.026;2023-07-31T01:47:26;1.92;;;1.00;;
54511;SDS011;40419;47.438;19.026;2023-07-31T01:49:54;2.08;;;1.02;;
54511;SDS011;40419;47.438;19.026;2023-07-31T01:52:22;2.00;;;1.08;;
54511;SDS011;40419;47.438;19.026;2023-07-31T01:54:50;1.42;;;1.05;;
54511;SDS011;40419;47.438;19.026;2023-07-31T01:57:18;2.08;;;1.02;;
54511;SDS011;40419;47.438;19.026;2023-07-31T01:59:43;2.47;;;1.08;;
54511;SDS011;40419;47.438;19.026;2023-07-31T02:02:11;2.17;;;1.05;;
54511;SDS011;40419;47.438;19.026;2023-07-31T02:04:40;1.92;;;0.90;;
54511;SDS011;40419;47.438;19.026;2023-07-31T02:07:10;1.98;;;0.98;;
54511;SDS011;40419;47.438;19.026;2023-07-31T02:09:36;2.38;;;1.27;;
54511;SDS011;40419;47.438;19.026;2023-07-31T02:12:04;1.67;;;1.20;;
54511;SDS011;40419;47.438;19.026;2023-07-31T02:14:30;2.28;;;0.80;;
54511;SDS011;40419;47.438;19.026;2023-07-31T02:16:58;2.72;;;1.10;;
54511;SDS011;40419;47.438;19.026;2023-07-31T02:19:26;5.82;;;0.90;;
54511;SDS011;40419;47.438;19.026;2023-07-31T02:21:54;1.85;;;1.08;;
54511;SDS011;40419;47.438;19.026;2023-07-31T02:24:23;2.72;;;1.25;;
54511;SDS011;40419;47.438;19.026;2023-07-31T02:26:56;2.22;;;1.13;;
54511;SDS011;40419;47.438;19.026;2023-07-31T02:29:24;2.08;;;1.10;;
54511;SDS011;40419;47.438;19.026;2023-07-31T02:31:57;6.28;;;1.15;;
54511;SDS011;40419;47.438;19.026;2023-07-31T02:34:27;1.10;;;0.60;;
54511;SDS011;40419;47.438;19.026;2023-07-31T02:36:55;1.75;;;0.90;;
54511;SDS011;40419;47.438;19.026;2023-07-31T02:39:23;1.10;;;0.80;;
54511;SDS011;40419;47.438;19.026;2023-07-31T02:41:51;4.78;;;0.85;;
54511;SDS011;40419;47.438;19.026;2023-07-31T02:44:20;0.88;;;0.50;;
54511;SDS011;40419;47.438;19.026;2023-07-31T02:46:46;1.40;;;0.90;;
54511;SDS011;40419;47.438;19.026;2023-07-31T02:49:14;1.52;;;0.80;;
54511;SDS011;40419;47.438;19.026;2023-07-31T02:51:39;1.15;;;0.80;;
54511;SDS011;40419;47.438;19.026;2023-07-31T02:54:10;2.00;;;0.82;;
54511;SDS011;40419;47.438;19.026;2023-07-31T02:56:41;3.72;;;1.10;;
54511;SDS011;40419;47.438;19.026;2023-07-31T02:59:06;2.80;;;0.63;;
54511;SDS011;40419;47.438;19.026;2023-07-31T03:01:34;0.50;;;0.40;;
54511;SDS011;40419;47.438;19.026;2023-07-31T03:03:59;0.70;;;0.60;;
54511;SDS011;40419;47.438;19.026;2023-07-31T03:06:27;3.00;;;1.15;;
54511;SDS011;40419;47.438;19.026;2023-07-31T03:08:58;1.02;;;0.52;;
54511;SDS011;40419;47.438;19.026;2023-07-31T03:11:28;5.43;;;0.80;;
54511;SDS011;40419;47.438;19.026;2023-07-31T03:13:57;2.25;;;0.70;;
54511;SDS011;40419;47.438;19.026;2023-07-31T03:16:22;0.63;;;0.50;;
54511;SDS011;40419;47.438;19.026;2023-07-31T03:18:50;1.00;;;0.70;;
54511;SDS011;40419;47.438;19.026;2023-07-31T03:21:15;1.23;;;0.75;;
54511;SDS011;40419;47.438;19.026;2023-07-31T03:23:43;1.33;;;0.70;;
54511;SDS011;40419;47.438;19.026;2023-07-31T03:26:09;1.75;;;0.90;;
54511;SDS011;40419;47.438;19.026;2023-07-31T03:28:39;1.65;;;1.00;;
54511;SDS011;40419;47.438;19.026;2023-07-31T03:31:12;1.27;;;1.08;;
54511;SDS011;40419;47.438;19.026;2023-07-31T03:33:37;1.50;;;1.00;;
54511;SDS011;40419;47.438;19.026;2023-07-31T03:36:03;1.52;;;1.10;;
54511;SDS011;40419;47.438;19.026;2023-07-31T03:38:29;2.15;;;1.00;;
54511;SDS011;40419;47.438;19.026;2023-07-31T03:40:57;0.98;;;0.60;;
54511;SDS011;40419;47.438;19.026;2023-07-31T03:43:26;1.55;;;0.80;;
54511;SDS011;40419;47.438;19.026;2023-07-31T03:45:53;0.68;;;0.68;;
54511;SDS011;40419;47.438;19.026;2023-07-31T03:48:21;0.98;;;0.70;;
54511;SDS011;40419;47.438;19.026;2023-07-31T03:50:49;0.85;;;0.50;;
54511;SDS011;40419;47.438;19.026;2023-07-31T03:53:15;1.55;;;0.77;;
54511;SDS011;40419;47.438;19.026;2023-07-31T03:55:45;0.82;;;0.68;;
54511;SDS011;40419;47.438;19.026;2023-07-31T03:58:11;0.50;;;0.50;;
54511;SDS011;40419;47.438;19.026;2023-07-31T04:00:39;0.63;;;0.60;;
54511;SDS011;40419;47.438;19.026;2023-07-31T04:03:08;1.70;;;0.70;;
54511;SDS011;40419;47.438;19.026;2023-07-31T04:05:37;1.02;;;0.70;;
54511;SDS011;40419;47.438;19.026;2023-07-31T04:08:04;1.33;;;0.88;;
54511;SDS011;40419;47.438;19.026;2023-07-31T04:10:34;0.65;;;0.50;;
54511;SDS011;40419;47.438;19.026;2023-07-31T04:13:02;2.65;;;0.80;;
54511;SDS011;40419;47.438;19.026;2023-07-31T04:15:27;0.57;;;0.57;;
54511;SDS011;40419;47.438;19.026;2023-07-31T04:17:53;0.90;;;0.50;;
54511;SDS011;40419;47.438;19.026;2023-07-31T04:20:18;1.25;;;0.77;;
54511;SDS011;40419;47.438;19.026;2023-07-31T04:22:44;0.93;;;0.70;;
54511;SDS011;40419;47.438;19.026;2023-07-31T04:25:11;1.45;;;0.70;;
54511;SDS011;40419;47.438;19.026;2023-07-31T04:27:37;0.95;;;0.60;;
54511;SDS011;40419;47.438;19.026;2023-07-31T04:30:05;0.63;;;0.50;;
54511;SDS011;40419;47.438;19.026;2023-07-31T04:32:31;0.57;;;0.50;;
54511;SDS011;40419;47.438;19.026;2023-07-31T04:34:57;1.63;;;0.90;;
54511;SDS011;40419;47.438;19.026;2023-07-31T04:37:24;1.70;;;0.73;;
54511;SDS011;40419;47.438;19.026;2023-07-31T04:39:50;1.08;;;0.77;;
54511;SDS011;40419;47.438;19.026;2023-07-31T04:42:18;1.20;;;0.80;;
54511;SDS011;40419;47.438;19.026;2023-07-31T04:44:48;1.33;;;0.70;;
54511;SDS011;40419;47.438;19.026;2023-07-31T04:47:18;0.98;;;0.60;;
54511;SDS011;40419;47.438;19.026;2023-07-31T04:49:49;1.35;;;0.60;;
54511;SDS011;40419;47.438;19.026;2023-07-31T04:52:17;1.20;;;0.60;;
54511;SDS011;40419;47.438;19.026;2023-07-31T04:54:43;0.47;;;0.43;;
54511;SDS011;40419;47.438;19.026;2023-07-31T04:57:10;1.73;;;0.80;;
54511;SDS011;40419;47.438;19.026;2023-07-31T04:59:40;1.17;;;0.55;;
54511;SDS011;40419;47.438;19.026;2023-07-31T05:02:08;1.20;;;0.73;;
54511;SDS011;40419;47.438;19.026;2023-07-31T05:04:39;2.45;;;0.73;;
54511;SDS011;40419;47.438;19.026;2023-07-31T05:07:04;2.08;;;0.85;;
54511;SDS011;40419;47.438;19.026;2023-07-31T05:09:30;1.30;;;0.63;;
54511;SDS011;40419;47.438;19.026;2023-07-31T05:12:01;1.55;;;0.68;;
54511;SDS011;40419;47.438;19.026;2023-07-31T05:14:28;0.45;;;0.38;;
54511;SDS011;40419;47.438;19.026;2023-07-31T05:16:57;0.65;;;0.50;;
54511;SDS011;40419;47.438;19.026;2023-07-31T05:19:24;1.60;;;0.77;;
54511;SDS011;40419;47.438;19.026;2023-07-31T05:21:50;0.60;;;0.50;;
54511;SDS011;40419;47.438;19.026;2023-07-31T05:24:19;1.20;;;0.60;;
54511;SDS011;40419;47.438;19.026;2023-07-31T05:26:46;0.50;;;0.50;;
54511;SDS011;40419;47.438;19.026;2023-07-31T05:29:14;1.35;;;0.80;;
54511;SDS011;40419;47.438;19.026;2023-07-31T05:31:40;1.45;;;0.60;;
54511;SDS011;40419;47.438;19.026;2023-07-31T05:34:05;1.00;;;0.50;;
54511;SDS011;40419;47.438;19.026;2023-07-31T05:36:35;1.60;;;0.68;;
54511;SDS011;40419;47.438;19.026;2023-07-31T05:39:01;1.13;;;0.57;;
54511;SDS011;40419;47.438;19.026;2023-07-31T05:41:31;1.27;;;0.52;;
54511;SDS011;40419;47.438;19.026;2023-07-31T05:43:59;3.50;;;0.80;;
54511;SDS011;40419;47.438;19.026;2023-07-31T05:46:29;1.95;;;0.82;;
54511;SDS011;40419;47.438;19.026;2023-07-31T05:49:01;1.38;;;0.65;;
54511;SDS011;40419;47.438;19.026;2023-07-31T05:51:29;0.85;;;0.47;;
54511;SDS011;40419;47.438;19.026;2023-07-31T05:53:57;0.95;;;0.63;;
54511;SDS011;40419;47.438;19.026;2023-07-31T05:56:22;1.05;;;0.77;;
54511;SDS011;40419;47.438;19.026;2023-07-31T05:58:52;1.55;;;0.65;;
54511;SDS011;40419;47.438;19.026;2023-07-31T06:01:17;0.65;;;0.50;;
54511;SDS011;40419;47.438;19.026;2023-07-31T06:03:43;0.60;;;0.40;;
54511;SDS011;40419;47.438;19.026;2023-07-31T06:06:11;1.33;;;0.60;;
54511;SDS011;40419;47.438;19.026;2023-07-31T06:08:39;0.63;;;0.50;;
54511;SDS011;40419;47.438;19.026;2023-07-31T06:11:05;1.08;;;0.55;;
54511;SDS011;40419;47.438;19.026;2023-07-31T06:13:34;0.95;;;0.60;;
54511;SDS011;40419;47.438;19.026;2023-07-31T06:16:00;1.20;;;0.70;;
54511;SDS011;40419;47.438;19.026;2023-07-31T06:18:27;0.77;;;0.60;;
54511;SDS011;40419;47.438;19.026;2023-07-31T06:20:55;2.10;;;0.70;;
54511;SDS011;40419;47.438;19.026;2023-07-31T06:23:21;0.40;;;0.32;;
54511;SDS011;40419;47.438;19.026;2023-07-31T06:25:49;2.20;;;0.90;;
54511;SDS011;40419;47.438;19.026;2023-07-31T06:28:19;0.55;;;0.40;;
54511;SDS011;40419;47.438;19.026;2023-07-31T06:30:47;0.93;;;0.50;;
54511;SDS011;40419;47.438;19.026;2023-07-31T06:33:13;1.65;;;0.57;;
54511;SDS011;40419;47.438;19.026;2023-07-31T06:35:41;1.35;;;0.63;;
54511;SDS011;40419;47.438;19.026;2023-07-31T06:38:08;0.85;;;0.70;;
54511;SDS011;40419;47.438;19.026;2023-07-31T06:40:34;1.55;;;0.57;;
54511;SDS011;40419;47.438;19.026;2023-07-31T06:43:03;1.15;;;0.65;;
54511;SDS011;40419;47.438;19.026;2023-07-31T06:45:33;0.50;;;0.43;;
54511;SDS011;40419;47.438;19.026;2023-07-31T06:48:00;0.38;;;0.30;;
54511;SDS011;40419;47.438;19.026;2023-07-31T06:50:31;0.55;;;0.47;;
54511;SDS011;40419;47.438;19.026;2023-07-31T06:52:59;0.82;;;0.30;;
54511;SDS011;40419;47.438;19.026;2023-07-31T06:55:27;1.25;;;0.60;;
54511;SDS011;40419;47.438;19.026;2023-07-31T06:57:53;0.82;;;0.60;;
54511;SDS011;40419;47.438;19.026;2023-07-31T07:00:20;1.48;;;0.70;;
54511;SDS011;40419;47.438;19.026;2023-07-31T07:02:47;2.35;;;0.50;;
54511;SDS011;40419;47.438;19.026;2023-07-31T07:05:13;0.75;;;0.43;;
54511;SDS011;40419;47.438;19.026;2023-07-31T07:07:39;0.50;;;0.32;;
54511;SDS011;40419;47.438;19.026;2023-07-31T07:10:08;2.15;;;0.60;;
54511;SDS011;40419;47.438;19.026;2023-07-31T07:12:36;1.00;;;0.50;;
54511;SDS011;40419;47.438;19.026;2023-07-31T07:15:04;0.60;;;0.60;;
54511;SDS011;40419;47.438;19.026;2023-07-31T07:17:30;0.50;;;0.30;;
54511;SDS011;40419;47.438;19.026;2023-07-31T07:19:58;0.30;;;0.30;;
54511;SDS011;40419;47.438;19.026;2023-07-31T07:22:26;1.05;;;0.50;;
54511;SDS011;40419;47.438;19.026;2023-07-31T07:24:55;3.58;;;0.68;;
54511;SDS011;40419;47.438;19.026;2023-07-31T07:27:22;0.98;;;0.70;;
54511;SDS011;40419;47.438;19.026;2023-07-31T07:29:53;2.40;;;0.63;;
54511;SDS011;40419;47.438;19.026;2023-07-31T07:32:23;3.22;;;0.68;;
54511;SDS011;40419;47.438;19.026;2023-07-31T07:34:55;1.60;;;0.50;;
54511;SDS011;40419;47.438;19.026;2023-07-31T07:37:21;1.20;;;0.65;;
54511;SDS011;40419;47.438;19.026;2023-07-31T07:39:48;0.45;;;0.40;;
54511;SDS011;40419;47.438;19.026;2023-07-31T07:42:17;0.65;;;0.47;;
54511;SDS011;40419;47.438;19.026;2023-07-31T07:44:45;6.22;;;0.47;;
54511;SDS011;40419;47.438;19.026;2023-07-31T07:47:13;1.63;;;0.65;;
54511;SDS011;40419;47.438;19.026;2023-07-31T07:49:44;2.10;;;0.60;;
54511;SDS011;40419;47.438;19.026;2023-07-31T07:52:14;9.77;;;0.50;;
54511;SDS011;40419;47.438;19.026;2023-07-31T07:54:42;0.47;;;0.30;;
54511;SDS011;40419;47.438;19.026;2023-07-31T07:57:08;1.77;;;0.63;;
54511;SDS011;40419;47.438;19.026;2023-07-31T07:59:33;0.55;;;0.40;;
54511;SDS011;40419;47.438;19.026;2023-07-31T08:02:03;1.00;;;0.63;;
54511;SDS011;40419;47.438;19.026;2023-07-31T08:04:31;0.57;;;0.55;;
54511;SDS011;40419;47.438;19.026;2023-07-31T08:07:02;0.93;;;0.60;;
54511;SDS011;40419;47.438;19.026;2023-07-31T08:09:31;0.73;;;0.55;;
54511;SDS011;40419;47.438;19.026;2023-07-31T08:11:56;0.85;;;0.60;;
54511;SDS011;40419;47.438;19.026;2023-07-31T08:14:27;0.75;;;0.40;;
54511;SDS011;40419;47.438;19.026;2023-07-31T08:16:52;1.98;;;0.73;;
54511;SDS011;40419;47.438;19.026;2023-07-31T08:19:18;2.53;;;0.50;;
54511;SDS011;40419;47.438;19.026;2023-07-31T08:21:49;1.08;;;0.70;;
54511;SDS011;40419;47.438;19.026;2023-07-31T08:36:50;1.20;;;0.45;;
54511;SDS011;40419;47.438;19.026;2023-07-31T08:39:18;0.40;;;0.38;;
54511;SDS011;40419;47.438;19.026;2023-07-31T08:41:45;1.25;;;0.52;;
54511;SDS011;40419;47.438;19.026;2023-07-31T08:44:13;0.80;;;0.60;;
54511;SDS011;40419;47.438;19.026;2023-07-31T08:46:42;1.63;;;0.70;;
54511;SDS011;40419;47.438;19.026;2023-07-31T08:49:18;0.60;;;0.47;;
54511;SDS011;40419;47.438;19.026;2023-07-31T08:51:49;1.23;;;0.50;;
54511;SDS011;40419;47.438;19.026;2023-07-31T08:54:15;0.90;;;0.60;;
54511;SDS011;40419;47.438;19.026;2023-07-31T08:56:43;2.03;;;0.50;;
54511;SDS011;40419;47.438;19.026;2023-07-31T08:59:11;0.45;;;0.40;;
54511;SDS011;40419;47.438;19.026;2023-07-31T09:01:42;1.40;;;0.73;;
54511;SDS011;40419;47.438;19.026;2023-07-31T09:04:13;1.48;;;0.73;;
54511;SDS011;40419;47.438;19.026;2023-07-31T09:06:40;2.55;;;0.40;;
54511;SDS011;40419;47.438;19.026;2023-07-31T09:09:12;0.85;;;0.60;;
54511;SDS011;40419;47.438;19.026;2023-07-31T09:11:37;2.83;;;0.70;;
54511;SDS011;40419;47.438;19.026;2023-07-31T09:14:08;1.42;;;0.80;;
54511;SDS011;40419;47.438;19.026;2023-07-31T09:16:53;0.77;;;0.38;;
54511;SDS011;40419;47.438;19.026;2023-07-31T09:19:28;1.20;;;0.50;;
54511;SDS011;40419;47.438;19.026;2023-07-31T09:21:59;1.42;;;0.90;;
54511;SDS011;40419;47.438;19.026;2023-07-31T09:24:27;0.43;;;0.43;;
54511;SDS011;40419;47.438;19.026;2023-07-31T09:26:56;1.45;;;0.70;;
54511;SDS011;40419;47.438;19.026;2023-07-31T09:29:30;1.67;;;1.05;;
54511;SDS011;40419;47.438;19.026;2023-07-31T09:32:00;2.10;;;0.57;;
54511;SDS011;40419;47.438;19.026;2023-07-31T09:34:31;1.13;;;0.50;;
54511;SDS011;40419;47.438;19.026;2023-07-31T09:37:07;1.40;;;0.60;;
54511;SDS011;40419;47.438;19.026;2023-07-31T09:39:47;3.97;;;0.73;;
54511;SDS011;40419;47.438;19.026;2023-07-31T09:42:24;0.70;;;0.60;;
54511;SDS011;40419;47.438;19.026;2023-07-31T09:44:53;0.85;;;0.50;;
54511;SDS011;40419;47.438;19.026;2023-07-31T09:47:21;0.60;;;0.60;;
54511;SDS011;40419;47.438;19.026;2023-07-31T09:49:50;0.75;;;0.45;;
54511;SDS011;40419;47.438;19.026;2023-07-31T09:52:20;0.25;;;0.25;;
54511;SDS011;40419;47.438;19.026;2023-07-31T09:54:48;0.50;;;0.38;;
54511;SDS011;40419;47.438;19.026;2023-07-31T09:57:14;2.25;;;0.40;;
54511;SDS011;40419;47.438;19.026;2023-07-31T09:59:47;0.63;;;0.40;;
54511;SDS011;40419;47.438;19.026;2023-07-31T10:02:15;1.08;;;0.60;;
54511;SDS011;40419;47.438;19.026;2023-07-31T10:04:45;0.50;;;0.40;;
54511;SDS011;40419;47.438;19.026;2023-07-31T10:07:16;0.88;;;0.50;;
54511;SDS011;40419;47.438;19.026;2023-07-31T10:09:45;0.77;;;0.60;;
54511;SDS011;40419;47.438;19.026;2023-07-31T10:12:15;1.17;;;0.50;;
54511;SDS011;40419;47.438;19.026;2023-07-31T10:14:44;3.10;;;0.50;;
54511;SDS011;40419;47.438;19.026;2023-07-31T10:17:12;2.13;;;0.45;;
54511;SDS011;40419;47.438;19.026;2023-07-31T10:19:41;0.73;;;0.50;;
54511;SDS011;40419;47.438;19.026;2023-07-31T10:22:09;0.55;;;0.38;;
54511;SDS011;40419;47.438;19.026;2023-07-31T10:24:35;1.58;;;0.68;;
54511;SDS011;40419;47.438;19.026;2023-07-31T10:27:04;4.93;;;0.50;;
54511;SDS011;40419;47.438;19.026;2023-07-31T10:29:35;0.77;;;0.60;;
54511;SDS011;40419;47.438;19.026;2023-07-31T10:32:06;0.70;;;0.47;;
54511;SDS011;40419;47.438;19.026;2023-07-31T10:34:38;1.27;;;0.50;;
54511;SDS011;40419;47.438;19.026;2023-07-31T10:37:31;1.15;;;0.60;;
54511;SDS011;40419;47.438;19.026;2023-07-31T10:42:51;1.10;;;0.65;;
54511;SDS011;40419;47.438;19.026;2023-07-31T10:48:05;4.07;;;0.80;;
54511;SDS011;40419;47.438;19.026;2023-07-31T10:50:40;0.52;;;0.50;;
54511;SDS011;40419;47.438;19.026;2023-07-31T10:53:26;0.65;;;0.50;;
54511;SDS011;40419;47.438;19.026;2023-07-31T10:55:58;1.88;;;0.60;;
54511;SDS011;40419;47.438;19.026;2023-07-31T10:58:31;0.90;;;0.60;;
54511;SDS011;40419;47.438;19.026;2023-07-31T11:01:03;0.77;;;0.30;;
54511;SDS011;40419;47.438;19.026;2023-07-31T11:06:08;0.65;;;0.45;;
54511;SDS011;40419;47.438;19.026;2023-07-31T11:08:34;0.55;;;0.43;;
54511;SDS011;40419;47.438;19.026;2023-07-31T11:16:12;0.38;;;0.30;;
54511;SDS011;40419;47.438;19.026;2023-07-31T11:18:42;0.82;;;0.50;;
54511;SDS011;40419;47.438;19.026;2023-07-31T11:21:14;1.25;;;0.40;;
54511;SDS011;40419;47.438;19.026;2023-07-31T11:23:47;1.25;;;0.47;;
54511;SDS011;40419;47.438;19.026;2023-07-31T11:26:17;1.40;;;0.50;;
54511;SDS011;40419;47.438;19.026;2023-07-31T11:28:47;1.17;;;0.40;;
54511;SDS011;40419;47.438;19.026;2023-07-31T11:31:13;1.52;;;0.40;;
54511;SDS011;40419;47.438;19.026;2023-07-31T11:33:40;2.05;;;0.50;;
54511;SDS011;40419;47.438;19.026;2023-07-31T11:36:14;0.90;;;0.50;;
54511;SDS011;40419;47.438;19.026;2023-07-31T11:38:42;1.05;;;0.45;;
54511;SDS011;40419;47.438;19.026;2023-07-31T11:41:10;0.73;;;0.30;;
54511;SDS011;40419;47.438;19.026;2023-07-31T11:43:44;0.43;;;0.35;;
54511;SDS011;40419;47.438;19.026;2023-07-31T11:46:13;1.65;;;0.57;;
54511;SDS011;40419;47.438;19.026;2023-07-31T11:48:40;3.15;;;0.70;;
54511;SDS011;40419;47.438;19.026;2023-07-31T11:51:06;2.20;;;0.75;;
54511;SDS011;40419;47.438;19.026;2023-07-31T11:56:02;1.08;;;0.60;;
54511;SDS011;40419;47.438;19.026;2023-07-31T11:58:32;0.63;;;0.50;;
54511;SDS011;40419;47.438;19.026;2023-07-31T12:00:59;1.73;;;0.40;;
54511;SDS011;40419;47.438;19.026;2023-07-31T12:03:29;0.68;;;0.30;;
54511;SDS011;40419;47.438;19.026;2023-07-31T12:05:58;0.85;;;0.45;;
54511;SDS011;40419;47.438;19.026;2023-07-31T12:08:28;1.52;;;0.40;;
54511;SDS011;40419;47.438;19.026;2023-07-31T12:11:02;0.82;;;0.40;;
54511;SDS011;40419;47.438;19.026;2023-07-31T12:13:31;1.33;;;0.55;;
54511;SDS011;40419;47.438;19.026;2023-07-31T12:16:02;1.13;;;0.50;;
54511;SDS011;40419;47.438;19.026;2023-07-31T12:18:30;0.68;;;0.43;;
54511;SDS011;40419;47.438;19.026;2023-07-31T12:21:02;0.20;;;0.20;;
54511;SDS011;40419;47.438;19.026;2023-07-31T12:23:32;0.38;;;0.30;;
54511;SDS011;40419;47.438;19.026;2023-07-31T12:28:37;0.98;;;0.57;;
54511;SDS011;40419;47.438;19.026;2023-07-31T12:33:32;1.20;;;0.50;;
54511;SDS011;40419;47.438;19.026;2023-07-31T12:36:02;0.40;;;0.40;;
54511;SDS011;40419;47.438;19.026;2023-07-31T12:38:29;1.45;;;0.70;;
54511;SDS011;40419;47.438;19.026;2023-07-31T12:40:58;0.55;;;0.30;;
54511;SDS011;40419;47.438;19.026;2023-07-31T12:43:28;1.45;;;0.68;;
54511;SDS011;40419;47.438;19.026;2023-07-31T12:46:00;0.60;;;0.35;;
54511;SDS011;40419;47.438;19.026;2023-07-31T12:48:28;1.23;;;0.60;;
54511;SDS011;40419;47.438;19.026;2023-07-31T12:50:57;1.52;;;0.60;;
54511;SDS011;40419;47.438;19.026;2023-07-31T12:53:28;0.88;;;0.50;;
54511;SDS011;40419;47.438;19.026;2023-07-31T12:55:56;1.45;;;0.75;;
54511;SDS011;40419;47.438;19.026;2023-07-31T12:58:27;0.52;;;0.52;;
54511;SDS011;40419;47.438;19.026;2023-07-31T13:00:52;1.75;;;0.38;;
54511;SDS011;40419;47.438;19.026;2023-07-31T13:03:20;3.53;;;0.50;;
54511;SDS011;40419;47.438;19.026;2023-07-31T13:05:48;0.45;;;0.35;;
54511;SDS011;40419;47.438;19.026;2023-07-31T13:08:17;1.75;;;0.40;;
54511;SDS011;40419;47.438;19.026;2023-07-31T13:10:45;0.70;;;0.50;;
54511;SDS011;40419;47.438;19.026;2023-07-31T13:13:15;0.43;;;0.30;;
54511;SDS011;40419;47.438;19.026;2023-07-31T13:15:41;0.50;;;0.35;;
54511;SDS011;40419;47.438;19.026;2023-07-31T13:18:06;0.45;;;0.32;;
54511;SDS011;40419;47.438;19.026;2023-07-31T13:20:34;1.70;;;0.98;;
54511;SDS011;40419;47.438;19.026;2023-07-31T13:22:59;0.63;;;0.52;;
54511;SDS011;40419;47.438;19.026;2023-07-31T13:25:27;1.17;;;0.60;;
54511;SDS011;40419;47.438;19.026;2023-07-31T13:27:55;2.92;;;0.70;;
54511;SDS011;40419;47.438;19.026;2023-07-31T13:30:24;0.68;;;0.45;;
54511;SDS011;40419;47.438;19.026;2023-07-31T13:32:49;0.70;;;0.30;;
54511;SDS011;40419;47.438;19.026;2023-07-31T13:35:15;0.43;;;0.40;;
54511;SDS011;40419;47.438;19.026;2023-07-31T13:37:42;0.82;;;0.40;;
54511;SDS011;40419;47.438;19.026;2023-07-31T13:40:10;2.83;;;0.60;;
54511;SDS011;40419;47.438;19.026;2023-07-31T13:42:42;1.60;;;0.55;;
54511;SDS011;40419;47.438;19.026;2023-07-31T13:45:12;1.33;;;0.68;;
54511;SDS011;40419;47.438;19.026;2023-07-31T13:47:39;4.07;;;0.57;;
54511;SDS011;40419;47.438;19.026;2023-07-31T13:50:05;1.48;;;0.35;;
54511;SDS011;40419;47.438;19.026;2023-07-31T13:52:31;0.52;;;0.52;;
54511;SDS011;40419;47.438;19.026;2023-07-31T13:54:56;1.10;;;0.50;;
54511;SDS011;40419;47.438;19.026;2023-07-31T13:57:27;1.17;;;0.63;;
54511;SDS011;40419;47.438;19.026;2023-07-31T13:59:55;2.42;;;0.45;;
54511;SDS011;40419;47.438;19.026;2023-07-31T14:02:23;1.88;;;0.60;;
54511;SDS011;40419;47.438;19.026;2023-07-31T14:04:49;0.98;;;0.40;;
54511;SDS011;40419;47.438;19.026;2023-07-31T14:07:14;1.50;;;0.50;;
54511;SDS011;40419;47.438;19.026;2023-07-31T14:09:39;1.25;;;0.40;;
54511;SDS011;40419;47.438;19.026;2023-07-31T14:12:05;0.40;;;0.40;;
54511;SDS011;40419;47.438;19.026;2023-07-31T14:14:33;0.60;;;0.32;;
54511;SDS011;40419;47.438;19.026;2023-07-31T14:16:59;0.80;;;0.50;;
54511;SDS011;40419;47.438;19.026;2023-07-31T14:19:27;0.90;;;0.45;;
54511;SDS011;40419;47.438;19.026;2023-07-31T14:21:58;1.63;;;0.43;;
54511;SDS011;40419;47.438;19.026;2023-07-31T14:24:29;1.10;;;0.65;;
54511;SDS011;40419;47.438;19.026;2023-07-31T14:27:02;15.43;;;1.05;;
54511;SDS011;40419;47.438;19.026;2023-07-31T14:29:27;0.80;;;0.50;;
54511;SDS011;40419;47.438;19.026;2023-07-31T14:31:53;0.98;;;0.50;;
54511;SDS011;40419;47.438;19.026;2023-07-31T14:34:18;1.88;;;0.57;;
54511;SDS011;40419;47.438;19.026;2023-07-31T14:36:46;0.32;;;0.30;;
54511;SDS011;40419;47.438;19.026;2023-07-31T14:39:16;2.53;;;0.63;;
54511;SDS011;40419;47.438;19.026;2023-07-31T14:41:44;0.40;;;0.40;;
54511;SDS011;40419;47.438;19.026;2023-07-31T14:44:15;0.55;;;0.50;;
54511;SDS011;40419;47.438;19.026;2023-07-31T14:46:43;1.10;;;0.30;;
54511;SDS011;40419;47.438;19.026;2023-07-31T14:49:13;1.02;;;0.43;;
54511;SDS011;40419;47.438;19.026;2023-07-31T14:51:41;0.68;;;0.50;;
54511;SDS011;40419;47.438;19.026;2023-07-31T14:54:12;1.80;;;0.60;;
54511;SDS011;40419;47.438;19.026;2023-07-31T14:56:41;3.13;;;0.70;;
54511;SDS011;40419;47.438;19.026;2023-07-31T14:59:09;0.52;;;0.50;;
54511;SDS011;40419;47.438;19.026;2023-07-31T15:01:39;0.30;;;0.20;;
54511;SDS011;40419;47.438;19.026;2023-07-31T15:04:12;0.90;;;0.55;;
54511;SDS011;40419;47.438;19.026;2023-07-31T15:06:39;1.17;;;0.88;;
54511;SDS011;40419;47.438;19.026;2023-07-31T15:09:05;0.60;;;0.30;;
54511;SDS011;40419;47.438;19.026;2023-07-31T15:11:33;0.85;;;0.38;;
54511;SDS011;40419;47.438;19.026;2023-07-31T15:13:58;1.13;;;0.35;;
54511;SDS011;40419;47.438;19.026;2023-07-31T15:16:26;0.75;;;0.47;;
54511;SDS011;40419;47.438;19.026;2023-07-31T15:18:56;1.10;;;0.40;;
54511;SDS011;40419;47.438;19.026;2023-07-31T15:21:23;0.52;;;0.40;;
54511;SDS011;40419;47.438;19.026;2023-07-31T15:23:59;1.15;;;0.63;;